Time;durP1;ratioP1;P1;durP2;ratioP2;P2;SDS_P1;SDS_P2;PMS_P1;PMS_P2;Temp;Humidity;BMP_temperature;BMP_pressure;BME280_temperature;BME280_humidity;BME280_pressure;Samples;Min_cycle;Max_cycle;Signal;HPM_P1;HPM_P2
2023/03/25 00:00:15;;;;;;;0.50;0.50;;;;;;;8.14;87.45;96305.91;29395;227;63005;-60
2023/03/25 00:00:48;;;;;;;0.50;0.50;;;;;;;8.17;87.03;96316.12;29395;241;63009;-60
2023/03/25 00:01:24;;;;;;;0.50;0.50;;;;;;;8.18;87.04;96316.94;29395;202;63005;-58
2023/03/25 00:01:55;;;;;;;0.50;0.50;;;;;;;8.28;85.33;96327.63;29394;233;64013;-59
2023/03/25 00:02:28;;;;;;;0.50;0.50;;;;;;;8.28;84.58;96306.78;29395;241;63005;-58
2023/03/25 00:03:00;;;;;;;0.50;0.50;;;;;;;8.23;85.17;96303.34;29395;209;63009;-60
2023/03/25 00:03:34;;;;;;;0.50;0.50;;;;;;;8.12;85.65;96296.47;29395;204;63004;-58
2023/03/25 00:04:05;;;;;;;0.50;0.50;;;;;;;7.93;87.36;96291.88;29395;216;63009;-59
2023/03/25 00:04:38;;;;;;;0.50;0.50;;;;;;;7.88;88.12;96302.75;29395;215;63004;-58
2023/03/25 00:05:11;;;;;;;0.50;0.50;;;;;;;7.81;87.86;96286.06;29394;202;64013;-58
2023/03/25 00:05:42;;;;;;;0.50;0.50;;;;;;;7.78;88.62;96292.06;29395;197;63004;-58
2023/03/25 00:06:14;;;;;;;0.50;0.50;;;;;;;7.77;87.61;96287.75;29395;232;63008;-61
2023/03/25 00:06:48;;;;;;;0.50;0.50;;;;;;;7.80;86.41;96279.06;29395;230;63005;-58
2023/03/25 00:07:21;;;;;;;0.50;0.50;;;;;;;7.73;86.80;96278.62;29395;230;63009;-58
2023/03/25 00:07:52;;;;;;;0.50;0.50;;;;;;;7.66;87.41;96272.75;29395;209;63005;-60
2023/03/25 00:08:24;;;;;;;0.50;0.50;;;;;;;7.60;88.80;96257.72;29395;261;63009;-59
2023/03/25 00:08:56;;;;;;;0.50;0.50;;;;;;;7.57;88.92;96286.09;29395;232;63005;-59
2023/03/25 00:09:27;;;;;;;0.50;0.50;;;;;;;7.57;89.17;96271.81;29395;277;63009;-58
2023/03/25 00:09:59;;;;;;;0.60;0.60;;;;;;;7.66;87.46;96275.44;29394;214;64009;-62
2023/03/25 00:10:30;;;;;;;0.50;0.50;;;;;;;7.64;87.13;96275.75;29395;212;63009;-60
2023/03/25 00:11:03;;;;;;;0.50;0.50;;;;;;;7.65;87.59;96279.25;29394;199;64004;-59
2023/03/25 00:11:34;;;;;;;0.50;0.50;;;;;;;7.72;86.73;96277.00;29395;222;63009;-58
2023/03/25 00:12:06;;;;;;;0.50;0.50;;;;;;;7.62;86.61;96272.53;29395;239;63004;-59
2023/03/25 00:12:38;;;;;;;1.00;1.00;;;;;;;7.53;nan;96268.06;29395;196;63009;-60
2023/03/25 00:13:12;;;;;;;0.50;0.50;;;;;;;7.47;88.22;96274.63;29395;202;63004;-60
2023/03/25 00:13:43;;;;;;;0.50;0.50;;;;;;;7.39;88.86;96268.75;29395;196;63019;-58
2023/03/25 00:14:16;;;;;;;0.50;0.50;;;;;;;7.33;89.69;96264.50;29395;249;63004;-58
2023/03/25 00:14:53;;;;;;;0.50;0.50;;;;;;;7.40;89.97;96264.16;29394;236;64014;-58
2023/03/25 00:15:24;;;;;;;0.50;0.50;;;;;;;7.39;89.81;96257.97;29394;197;63998;-59
2023/03/25 00:15:57;;;;;;;0.50;0.50;;;;;;;7.35;89.68;96262.31;29395;225;63009;-59
2023/03/25 00:16:31;;;;;;;0.60;0.60;;;;;;;7.41;89.75;96260.38;29394;252;64009;-56
2023/03/25 00:17:02;;;;;;;0.50;0.50;;;;;;;7.53;86.96;96268.88;29395;214;63009;-58
2023/03/25 00:17:35;;;;;;;0.50;0.50;;;;;;;7.48;86.43;96258.13;29395;293;63005;-58
2023/03/25 00:18:06;;;;;;;0.50;0.50;;;;;;;7.50;87.01;96257.84;29395;226;63009;-64
2023/03/25 00:18:38;;;;;;;0.60;0.60;;;;;;;7.46;87.51;96256.81;29395;251;63012;-65
2023/03/25 00:19:10;;;;;;;0.50;0.50;;;;;;;7.45;87.32;96249.81;29395;248;63009;-58
2023/03/25 00:19:41;;;;;;;0.50;0.50;;;;;;;7.37;87.43;96257.44;29395;287;63007;-57
2023/03/25 00:20:14;;;;;;;0.50;0.50;;;;;;;7.37;86.71;96243.94;29395;304;63009;-57
2023/03/25 00:20:49;;;;;;;0.50;0.50;;;;;;;7.38;86.76;96256.34;29394;234;64009;-58
2023/03/25 00:21:22;;;;;;;0.50;0.50;;;;;;;7.43;86.95;96257.38;29395;220;63017;-57
2023/03/25 00:21:55;;;;;;;0.50;0.50;;;;;;;7.38;86.87;96256.34;29395;220;63005;-57
2023/03/25 00:22:26;;;;;;;0.50;0.50;;;;;;;7.34;87.07;96255.31;29395;241;63009;-56
2023/03/25 00:22:58;;;;;;;0.50;0.50;;;;;;;7.30;87.59;96256.16;29395;220;63005;-56
2023/03/25 00:23:30;;;;;;;0.50;0.50;;;;;;;7.34;87.50;96255.31;29395;226;63009;-56
2023/03/25 00:24:02;;;;;;;0.50;0.50;;;;;;;7.32;87.80;96257.50;29395;271;63005;-57
2023/03/25 00:24:33;;;;;;;0.50;0.50;;;;;;;7.32;87.90;96246.69;29395;238;63009;-56
2023/03/25 00:25:09;;;;;;;0.50;0.50;;;;;;;7.28;87.91;96248.38;29395;244;63005;-56
2023/03/25 00:25:40;;;;;;;0.50;0.50;;;;;;;7.32;87.51;96251.28;29394;213;64013;-56
2023/03/25 00:26:15;;;;;;;0.50;0.50;;;;;;;7.34;86.72;96254.50;29395;283;63004;-56
2023/03/25 00:26:47;;;;;;;0.57;0.57;;;;;;;7.37;86.26;96260.13;29395;285;63009;-56
2023/03/25 00:27:19;;;;;;;0.50;0.50;;;;;;;7.39;86.23;96246.34;29395;222;63004;-57
2023/03/25 00:27:50;;;;;;;0.50;0.50;;;;;;;7.40;86.29;96254.16;29395;301;63009;-56
2023/03/25 00:28:23;;;;;;;0.50;0.50;;;;;;;7.36;86.34;96253.13;29394;245;64009;-57
2023/03/25 00:28:55;;;;;;;0.50;0.50;;;;;;;7.32;87.30;96257.50;29394;254;64013;-56
2023/03/25 00:30:42;;;;;;;0.50;0.50;;;;;;;7.31;86.37;96261.28;88174;203;64004;-56
2023/03/25 00:31:14;;;;;;;0.50;0.50;;;;;;;7.31;85.97;96261.28;29394;203;64009;-56
2023/03/25 00:31:46;;;;;;;0.50;0.50;;;;;;;7.23;86.56;96264.63;29394;199;64009;-58
2023/03/25 00:32:19;;;;;;;0.50;0.50;;;;;;;7.20;86.17;96265.22;29395;212;63009;-57
2023/03/25 00:32:51;;;;;;;0.50;0.50;;;;;;;7.15;86.26;96257.16;29395;240;63005;-57
2023/03/25 00:33:23;;;;;;;0.50;0.50;;;;;;;7.11;87.43;96266.09;29395;199;63009;-57
2023/03/25 00:33:56;;;;;;;0.50;0.50;;;;;;;7.07;87.68;96265.87;29395;281;63005;-57
2023/03/25 00:34:28;;;;;;;0.50;0.50;;;;;;;7.07;88.18;96255.88;29394;228;64013;-56
2023/03/25 00:34:59;;;;;;;0.50;0.50;;;;;;;7.06;87.83;96259.66;29395;223;63004;-57
2023/03/25 00:35:32;;;;;;;0.50;0.50;;;;;;;7.05;88.42;96262.66;29395;202;63009;-56
2023/03/25 00:36:04;;;;;;;0.50;0.50;;;;;;;7.04;88.57;96261.03;29395;218;63004;-56
2023/03/25 00:36:36;;;;;;;0.50;0.50;;;;;;;7.07;88.17;96255.88;29395;260;63007;-55
2023/03/25 00:37:10;;;;;;;0.50;0.50;;;;;;;7.21;86.52;96258.72;29395;216;63004;-56
2023/03/25 00:37:42;;;;;;;0.50;0.50;;;;;;;7.22;85.89;96263.03;29394;259;64014;-56
2023/03/25 00:38:14;;;;;;;0.50;0.50;;;;;;;7.19;85.92;96258.19;29395;212;63005;-56
2023/03/25 00:38:51;;;;;;;0.50;0.50;;;;;;;7.21;86.86;96261.41;29395;230;63009;-54
2023/03/25 00:39:22;;;;;;;0.50;0.50;;;;;;;7.37;84.56;96264.72;29395;204;63005;-56
2023/03/25 00:39:53;;;;;;;0.50;0.50;;;;;;;7.50;84.26;96263.25;29395;199;63009;-56
2023/03/25 00:40:27;;;;;;;0.50;0.50;;;;;;;7.46;84.60;96259.50;29395;218;63005;-57
2023/03/25 00:41:11;;;;;;;0.50;0.50;;;;;;;7.47;84.00;96264.63;29394;221;64013;-57
2023/03/25 00:41:42;;;;;;;0.50;0.50;;;;;;;7.51;84.04;96259.47;29395;275;63004;-57
2023/03/25 00:42:24;;;;;;;0.50;0.50;;;;;;;7.40;83.77;96254.16;29395;197;63009;-57
2023/03/25 00:42:56;;;;;;;0.50;0.50;;;;;;;7.35;85.07;96264.22;29394;323;64000;-62
2023/03/25 00:43:27;;;;;;;0.50;0.50;;;;;;;7.34;84.77;96260.72;29395;222;63009;-66
2023/03/25 00:44:00;;;;;;;0.50;0.50;;;;;;;7.33;84.30;96266.41;29395;216;63004;-57
2023/03/25 00:45:40;;;;;;;0.50;0.50;;;;;;;7.18;85.10;96255.78;88174;203;64004;-56
2023/03/25 00:46:11;;;;;;;0.93;0.93;;;;;;;7.21;85.92;96255.22;29394;214;64009;-62
2023/03/25 00:46:42;;;;;;;0.50;0.50;;;;;;;7.22;85.28;96256.81;29395;231;63005;-56
2023/03/25 00:47:17;;;;;;;0.50;0.50;;;;;;;7.19;85.33;96257.41;29395;220;63009;-56
2023/03/25 00:47:48;;;;;;;0.50;0.50;;;;;;;7.14;85.72;96255.56;29394;247;64009;-56
2023/03/25 00:48:19;;;;;;;0.50;0.50;;;;;;;7.10;86.47;96253.72;29395;222;63009;-56
2023/03/25 00:48:51;;;;;;;0.50;0.50;;;;;;;7.04;87.00;96252.94;29395;197;63004;-56
2023/03/25 00:49:23;;;;;;;0.50;0.50;;;;;;;7.00;87.15;96249.22;29395;216;63009;-57
2023/03/25 00:49:55;;;;;;;0.50;0.50;;;;;;;6.99;87.35;96247.59;29395;242;63004;-56
2023/03/25 00:50:27;;;;;;;0.50;0.50;;;;;;;7.02;87.08;96239.75;29395;196;63009;-56
2023/03/25 00:50:58;;;;;;;0.50;0.50;;;;;;;7.04;86.90;96244.84;29394;247;64008;-57
2023/03/25 00:51:33;;;;;;;0.50;0.50;;;;;;;7.08;86.97;96240.50;29395;259;63008;-56
2023/03/25 00:52:04;;;;;;;0.50;0.50;;;;;;;7.14;85.89;96244.75;29395;228;63005;-56
2023/03/25 00:52:35;;;;;;;0.50;0.50;;;;;;;7.24;85.58;96250.06;29395;203;63009;-55
2023/03/25 00:53:07;;;;;;;0.50;0.50;;;;;;;7.26;85.08;96241.66;29395;251;63005;-56
2023/03/25 00:53:39;;;;;;;0.50;0.50;;;;;;;7.26;85.24;96236.28;29395;261;63017;-56
2023/03/25 00:54:11;;;;;;;0.50;0.50;;;;;;;7.24;84.48;96241.16;29395;289;63005;-56
2023/03/25 00:54:42;;;;;;;0.50;0.50;;;;;;;7.18;84.61;96237.72;29395;206;63009;-56
2023/03/25 00:55:14;;;;;;;0.50;0.50;;;;;;;7.13;85.57;96242.34;29395;220;63005;-56
2023/03/25 00:55:46;;;;;;;0.50;0.50;;;;;;;7.15;85.91;96227.47;29395;223;63009;-60
2023/03/25 00:56:18;;;;;;;0.50;0.50;;;;;;;7.28;83.88;96240.25;29394;283;64009;-55
2023/03/25 00:56:52;;;;;;;0.50;0.50;;;;;;;7.33;84.38;96237.50;29395;205;63009;-69
2023/03/25 00:57:23;;;;;;;0.50;0.50;;;;;;;7.33;83.49;96237.50;29395;228;63004;-56
2023/03/25 00:57:54;;;;;;;0.50;0.50;;;;;;;7.33;83.93;96251.00;29395;280;63009;-56
2023/03/25 00:58:28;;;;;;;0.50;0.50;;;;;;;7.37;83.67;96252.03;29395;203;63004;-57
2023/03/25 00:59:00;;;;;;;0.50;0.50;;;;;;;7.42;81.99;96243.09;29395;211;63008;-55
2023/03/25 00:59:31;;;;;;;0.50;0.50;;;;;;;7.52;80.39;96234.06;29395;237;63005;-56
2023/03/25 01:00:08;;;;;;;0.50;0.50;;;;;;;7.54;80.13;96243.50;29395;272;63009;-56
2023/03/25 01:00:40;;;;;;;0.50;0.50;;;;;;;7.69;79.52;96239.78;29395;209;63005;-58
2023/03/25 01:01:15;;;;;;;0.50;0.50;;;;;;;7.72;79.52;96245.41;29395;239;63009;-68
2023/03/25 01:01:46;;;;;;;0.50;0.50;;;;;;;7.68;78.97;96244.37;29394;280;64009;-56
2023/03/25 01:02:20;;;;;;;0.50;0.50;;;;;;;7.71;78.44;96248.38;29395;241;63009;-55
2023/03/25 01:02:52;;;;;;;1.30;1.30;;;;;;;7.73;77.14;96240.81;29395;203;63005;-60
2023/03/25 01:03:25;;;;;;;0.50;0.50;;;;;;;7.62;78.26;96233.94;29395;248;63009;-56
2023/03/25 01:03:58;;;;;;;0.50;0.50;;;;;;;7.54;78.66;96231.88;29394;290;64009;-56
2023/03/25 01:04:30;;;;;;;0.50;0.50;;;;;;;7.44;79.50;96232.81;29395;212;63009;-57
2023/03/25 01:05:01;;;;;;;0.50;0.50;;;;;;;7.38;80.08;96228.56;29394;209;64009;-58
2023/03/25 01:05:33;;;;;;;0.50;0.50;;;;;;;7.38;80.19;96229.34;29395;270;63017;-57
2023/03/25 01:06:10;;;;;;;0.50;0.50;;;;;;;7.41;80.06;96238.78;29395;237;63004;-58
2023/03/25 01:06:45;;;;;;;0.50;0.50;;;;;;;7.48;80.25;96233.03;29395;251;63008;-56
2023/03/25 01:07:19;;;;;;;0.50;0.50;;;;;;;7.59;77.58;96229.13;29394;304;64009;-58
2023/03/25 01:07:50;;;;;;;0.60;0.60;;;;;;;7.60;78.11;96231.53;29394;282;64014;-58
2023/03/25 01:08:28;;;;;;;0.50;0.50;;;;;;;7.72;76.86;96233.78;29395;227;63005;-56
2023/03/25 01:09:02;;;;;;;0.50;0.50;;;;;;;7.72;77.07;96229.19;29395;202;63009;-57
2023/03/25 01:09:33;;;;;;;0.50;0.50;;;;;;;7.66;77.81;96234.94;29395;224;63005;-57
2023/03/25 01:10:06;;;;;;;0.50;0.50;;;;;;;7.58;78.00;96228.31;29395;208;63009;-57
2023/03/25 01:10:37;;;;;;;0.50;0.50;;;;;;;7.48;78.64;96230.34;29395;248;63004;-57
2023/03/25 01:11:26;;;;;;;0.50;0.50;;;;;;;7.51;78.14;96232.47;29395;232;63009;-56
2023/03/25 01:11:57;;;;;;;0.50;0.50;;;;;;;7.47;78.66;96231.44;29395;254;63004;-57
2023/03/25 01:12:28;;;;;;;0.50;0.50;;;;;;;7.44;79.26;96232.81;29394;214;64013;-57
2023/03/25 01:13:00;;;;;;;0.50;0.50;;;;;;;7.36;79.55;96233.44;29395;196;63004;-56
2023/03/25 01:13:31;;;;;;;0.50;0.50;;;;;;;7.29;80.44;96231.09;29395;294;63008;-67
2023/03/25 01:14:13;;;;;;;0.50;0.50;;;;;;;7.36;79.84;96230.75;29395;232;63004;-57
2023/03/25 01:14:45;;;;;;;0.50;0.50;;;;;;;7.40;79.35;96234.47;29394;291;64014;-57
2023/03/25 01:15:16;;;;;;;0.50;0.50;;;;;;;7.47;79.54;96236.81;29395;228;63005;-55
2023/03/25 01:15:48;;;;;;;0.50;0.50;;;;;;;7.47;78.76;96237.63;29395;202;63009;-59
2023/03/25 01:16:19;;;;;;;0.50;0.50;;;;;;;7.49;78.79;96240.03;29395;236;63005;-56
2023/03/25 01:16:50;;;;;;;0.50;0.50;;;;;;;7.46;78.60;96235.22;29395;203;63009;-57
2023/03/25 01:17:22;;;;;;;0.50;0.50;;;;;;;7.44;79.11;96240.09;29395;269;63005;-57
2023/03/25 01:17:53;;;;;;;0.50;0.50;;;;;;;7.39;79.35;96247.16;29394;203;64013;-58
2023/03/25 01:18:24;;;;;;;0.50;0.50;;;;;;;7.37;79.73;96252.03;29395;236;63000;-56
2023/03/25 01:18:56;;;;;;;0.50;0.50;;;;;;;7.35;79.45;96254.22;29395;197;63009;-58
2023/03/25 01:19:27;;;;;;;0.50;0.50;;;;;;;7.42;79.12;96245.78;29395;233;63004;-56
2023/03/25 01:19:59;;;;;;;0.50;0.50;;;;;;;7.38;79.32;96245.56;29395;293;63009;-56
2023/03/25 01:20:30;;;;;;;0.50;0.50;;;;;;;7.30;79.63;96251.56;29395;241;63004;-56
2023/03/25 01:21:01;;;;;;;0.50;0.50;;;;;;;7.29;80.18;96249.97;29395;202;63016;-57
2023/03/25 01:21:35;;;;;;;0.50;0.50;;;;;;;7.27;80.06;96244.09;29395;217;63005;-55
2023/03/25 01:22:06;;;;;;;0.50;0.50;;;;;;;7.27;80.21;96243.28;29395;204;63009;-57
2023/03/25 01:22:38;;;;;;;0.43;0.43;;;;;;;7.24;80.56;96244.66;29395;224;63009;-56
2023/03/25 01:23:09;;;;;;;0.50;0.50;;;;;;;7.20;80.29;96249.00;29394;217;64013;-56
2023/03/25 01:23:41;;;;;;;0.50;0.50;;;;;;;7.15;80.90;96246.38;29395;224;63005;-56
2023/03/25 01:24:13;;;;;;;0.50;0.50;;;;;;;7.13;80.75;96243.16;29395;241;63009;-57
2023/03/25 01:24:45;;;;;;;0.50;0.50;;;;;;;7.14;81.46;96244.75;29395;229;63005;-56
2023/03/25 01:25:17;;;;;;;0.50;0.50;;;;;;;7.14;81.62;96249.34;29394;234;64013;-57
2023/03/25 01:25:48;;;;;;;0.50;0.50;;;;;;;7.12;80.58;96241.53;29395;254;63004;-56
2023/03/25 01:26:20;;;;;;;0.50;0.50;;;;;;;7.25;80.53;96238.16;29395;227;63009;-57
2023/03/25 01:26:51;;;;;;;0.50;0.50;;;;;;;7.28;80.28;96237.56;29395;218;63004;-56
2023/03/25 01:27:23;;;;;;;0.50;0.50;;;;;;;7.26;80.68;96241.66;29395;248;63018;-56
2023/03/25 01:27:54;;;;;;;0.50;0.50;;;;;;;7.19;81.33;96239.31;29395;264;63007;-56
2023/03/25 01:28:29;;;;;;;0.50;0.50;;;;;;;7.09;82.22;96235.91;29395;264;63008;-58
2023/03/25 01:29:00;;;;;;;0.50;0.50;;;;;;;7.02;82.32;96230.84;29395;198;63005;-57
2023/03/25 01:29:35;;;;;;;0.50;0.50;;;;;;;7.07;82.10;96238.91;29395;208;63009;-68
2023/03/25 01:30:08;;;;;;;0.50;0.50;;;;;;;7.05;82.22;96235.69;29395;288;63005;-56
2023/03/25 01:30:39;;;;;;;0.50;0.50;;;;;;;7.01;82.17;96234.63;29394;208;64013;-57
2023/03/25 01:31:13;;;;;;;0.50;0.50;;;;;;;6.99;82.52;96232.22;29395;247;63005;-56
2023/03/25 01:31:44;;;;;;;0.50;0.50;;;;;;;7.02;82.26;96231.66;29395;244;63009;-56
2023/03/25 01:32:17;;;;;;;0.50;0.50;;;;;;;7.01;82.29;96221.97;29395;250;63005;-56
2023/03/25 01:32:48;;;;;;;0.50;0.50;;;;;;;6.99;82.12;96226.03;29395;218;63009;-58
2023/03/25 01:33:20;;;;;;;0.50;0.50;;;;;;;7.01;82.80;96223.84;29395;254;63004;-57
2023/03/25 01:33:51;;;;;;;0.50;0.50;;;;;;;7.07;82.29;96222.72;29395;247;63009;-57
2023/03/25 01:34:23;;;;;;;0.50;0.50;;;;;;;7.07;82.41;96223.50;29395;294;63004;-56
2023/03/25 01:34:54;;;;;;;0.50;0.50;;;;;;;7.05;82.54;96214.09;29395;225;63009;-57
2023/03/25 01:35:25;;;;;;;0.50;0.50;;;;;;;7.04;82.67;96212.50;29395;237;63004;-56
2023/03/25 01:35:56;;;;;;;0.50;0.50;;;;;;;7.03;82.81;96214.38;29394;202;64013;-57
2023/03/25 01:36:28;;;;;;;0.50;0.50;;;;;;;7.03;83.16;96213.59;29395;241;63005;-66
2023/03/25 01:36:59;;;;;;;0.50;0.50;;;;;;;7.01;83.02;96216.56;29395;213;63009;-58
2023/03/25 01:37:32;;;;;;;0.50;0.50;;;;;;;7.10;82.26;96214.03;29395;283;63005;-57
2023/03/25 01:38:04;;;;;;;0.50;0.50;;;;;;;7.12;82.17;96225.34;29395;220;63009;-57
2023/03/25 01:38:36;;;;;;;0.50;0.50;;;;;;;7.12;82.47;96236.16;29395;216;63005;-56
2023/03/25 01:39:09;;;;;;;0.50;0.50;;;;;;;7.16;82.28;96230.97;29395;258;63009;-58
2023/03/25 01:39:41;;;;;;;0.50;0.50;;;;;;;7.16;82.50;96237.19;29395;198;63005;-57
2023/03/25 01:40:18;;;;;;;0.50;0.50;;;;;;;7.28;81.05;96240.25;29395;208;63009;-58
2023/03/25 01:40:51;;;;;;;0.90;0.90;;;;;;;7.35;80.65;96240.72;29395;244;63004;-59
2023/03/25 01:41:22;;;;;;;0.50;0.50;;;;;;;7.35;80.51;96227.22;29394;207;64003;-58
2023/03/25 01:41:54;;;;;;;0.50;0.50;;;;;;;7.30;80.66;96224.59;29395;210;63004;-58
2023/03/25 01:42:25;;;;;;;0.50;0.50;;;;;;;7.26;81.55;96220.87;29395;238;63027;-59
2023/03/25 01:42:56;;;;;;;0.50;0.50;;;;;;;7.25;82.29;96208.50;29395;202;63004;-58
2023/03/25 01:43:28;;;;;;;0.50;0.50;;;;;;;7.28;81.99;96213.28;29395;226;63008;-57
2023/03/25 01:44:39;;;;;;;0.50;0.50;;;;;;;7.27;81.81;96209.00;29395;232;63005;-56
2023/03/25 01:45:22;;;;;;;0.50;0.50;;;;;;;7.27;81.46;96213.59;29395;223;63009;-57
2023/03/25 01:45:53;;;;;;;0.50;0.50;;;;;;;7.24;81.60;96214.97;29395;211;63005;-57
2023/03/25 01:46:24;;;;;;;0.50;0.50;;;;;;;7.19;82.04;96208.84;29394;244;64013;-55
2023/03/25 01:47:02;;;;;;;0.50;0.50;;;;;;;7.19;81.88;96206.94;29395;241;63005;-57
2023/03/25 01:47:34;;;;;;;0.50;0.50;;;;;;;7.23;81.59;96220.66;29395;202;63009;-57
2023/03/25 01:48:14;;;;;;;0.50;0.50;;;;;;;7.31;80.55;96212.72;29395;222;63004;-56
2023/03/25 01:48:48;;;;;;;0.50;0.50;;;;;;;7.39;79.96;96213.97;29395;202;63009;-58
2023/03/25 01:49:43;;;;;;;0.50;0.50;;;;;;;7.44;79.31;96221.22;29395;241;63004;-57
2023/03/25 01:50:16;;;;;;;0.50;0.50;;;;;;;7.45;79.56;96222.81;29395;357;63017;-58
2023/03/25 01:50:59;;;;;;;0.50;0.50;;;;;;;7.53;78.34;96214.09;29395;213;63004;-56
2023/03/25 01:51:35;;;;;;;0.50;0.50;;;;;;;7.55;78.63;96212.69;29394;211;64014;-57
2023/03/25 01:52:23;;;;;;;0.50;0.50;;;;;;;7.50;78.64;96220.06;29395;258;63005;-57
2023/03/25 01:52:57;;;;;;;0.50;0.50;;;;;;;7.46;79.30;96213.63;29395;224;63009;-57
2023/03/25 01:53:31;;;;;;;0.50;0.50;;;;;;;7.39;79.64;96209.38;29395;227;63005;-70
2023/03/25 01:54:04;;;;;;;0.50;0.50;;;;;;;7.33;79.49;96199.72;29395;258;63009;-57
2023/03/25 01:54:38;;;;;;;0.50;0.50;;;;;;;7.34;79.85;96206.72;29395;202;63005;-56
2023/03/25 01:55:10;;;;;;;0.50;0.50;;;;;;;7.30;79.93;96208.41;29394;202;64013;-58
2023/03/25 01:55:43;;;;;;;0.50;0.50;;;;;;;7.28;80.14;96205.19;29395;219;63004;-57
2023/03/25 01:56:19;;;;;;;0.50;0.50;;;;;;;7.29;80.37;96212.19;29395;196;63009;-58
2023/03/25 01:56:51;;;;;;;0.50;0.50;;;;;;;7.37;79.15;96206.16;29395;251;63004;-56
2023/03/25 01:57:24;;;;;;;0.50;0.50;;;;;;;7.36;78.75;96209.94;29395;236;63009;-56
2023/03/25 01:57:58;;;;;;;0.50;0.50;;;;;;;7.43;79.17;96214.19;29395;231;63004;-56
2023/03/25 01:58:31;;;;;;;0.50;0.50;;;;;;;7.42;78.98;96212.59;29395;227;63008;-56
2023/03/25 01:59:05;;;;;;;0.50;0.50;;;;;;;7.36;79.24;96214.53;29395;250;63018;-56
2023/03/25 01:59:38;;;;;;;0.50;0.50;;;;;;;7.30;79.66;96208.41;29394;229;64014;-57
2023/03/25 02:00:11;;;;;;;0.50;0.50;;;;;;;7.25;80.16;96218.47;29394;235;64009;-57
2023/03/25 02:00:45;;;;;;;0.50;0.50;;;;;;;7.17;80.08;96211.81;29395;281;63009;-56
2023/03/25 02:01:20;;;;;;;0.50;0.50;;;;;;;7.15;80.47;96213.19;29395;202;63005;-56
2023/03/25 02:01:54;;;;;;;0.50;0.50;;;;;;;7.12;81.25;96209.16;29395;236;63009;-56
2023/03/25 02:02:33;;;;;;;0.50;0.50;;;;;;;7.08;81.33;96216.22;29395;231;63005;-56
2023/03/25 02:03:08;;;;;;;0.50;0.50;;;;;;;7.08;81.84;96208.13;29394;197;64013;-58
2023/03/25 02:03:49;;;;;;;0.50;0.50;;;;;;;7.06;81.15;96210.31;29395;286;63004;-55
2023/03/25 02:04:50;;;;;;;0.50;0.50;;;;;;;7.02;81.32;96201.19;29394;228;64013;-57
2023/03/25 02:05:32;;;;;;;0.50;0.50;;;;;;;6.96;80.78;96207.72;29395;230;63004;-57
2023/03/25 02:06:19;;;;;;;0.50;0.50;;;;;;;6.96;81.12;96202.31;29395;236;63008;-56
2023/03/25 02:06:53;;;;;;;0.50;0.50;;;;;;;6.99;81.59;96196.34;29395;213;63005;-57
2023/03/25 02:07:31;;;;;;;0.50;0.50;;;;;;;7.02;81.28;96193.09;29394;276;64014;-56
2023/03/25 02:08:07;;;;;;;0.50;0.50;;;;;;;6.98;81.33;96192.06;29395;197;63005;-56
2023/03/25 02:08:40;;;;;;;0.50;0.50;;;;;;;6.97;81.44;96198.53;29395;196;63009;-56
2023/03/25 02:09:18;;;;;;;0.50;0.50;;;;;;;6.95;82.02;96192.63;29395;304;63005;-56
2023/03/25 02:09:49;;;;;;;0.50;0.50;;;;;;;6.95;82.13;96192.63;29394;251;64003;-56
2023/03/25 02:10:21;;;;;;;0.50;0.50;;;;;;;6.94;82.13;96183.72;29395;247;63005;-56
2023/03/25 02:10:53;;;;;;;0.50;0.50;;;;;;;6.96;81.80;96188.84;29395;202;63009;-56
2023/03/25 02:11:28;;;;;;;0.50;0.50;;;;;;;6.95;82.38;96187.22;29395;212;63004;-56
2023/03/25 02:11:59;;;;;;;0.50;0.50;;;;;;;6.95;82.42;96192.63;29395;227;63009;-56
2023/03/25 02:12:31;;;;;;;0.50;0.50;;;;;;;6.96;82.58;96188.84;29395;209;63004;-56
2023/03/25 02:13:06;;;;;;;0.50;0.50;;;;;;;7.00;82.44;96184.47;29394;249;64013;-56
2023/03/25 02:13:40;;;;;;;0.50;0.50;;;;;;;7.00;82.55;96184.47;29395;218;63004;-56
2023/03/25 02:14:23;;;;;;;0.50;0.50;;;;;;;6.98;82.36;96192.84;29395;226;63009;-57
2023/03/25 02:14:56;;;;;;;0.50;0.50;;;;;;;6.96;82.86;96188.84;29395;318;63005;-56
2023/03/25 02:15:40;;;;;;;0.50;0.50;;;;;;;6.94;82.98;96191.81;29395;199;63009;-55
2023/03/25 02:16:55;;;;;;;0.50;0.50;;;;;;;6.83;84.42;96189.53;29395;231;63011;-56
2023/03/25 02:17:41;;;;;;;0.50;0.50;;;;;;;6.84;84.17;96191.16;29395;227;63009;-57
2023/03/25 02:18:59;;;;;;;0.50;0.50;;;;;;;6.86;83.52;96195.16;29394;250;64009;-56
2023/03/25 02:20:07;;;;;;;0.50;0.50;;;;;;;7.07;83.24;96195.72;29395;215;63009;-58
2023/03/25 02:21:09;;;;;;;0.52;0.52;;;;;;;7.07;83.27;96198.44;29395;204;63004;-59
2023/03/25 02:22:24;;;;;;;0.60;0.60;;;;;;;7.12;82.86;96198.37;29416;222;64009;-56
2023/03/25 02:23:20;;;;;;;0.50;0.50;;;;;;;7.07;82.67;96190.34;29395;197;63009;-57
2023/03/25 02:24:42;;;;;;;0.50;0.50;;;;;;;7.01;83.58;96191.47;29394;219;64009;-56
2023/03/25 02:25:46;;;;;;;0.60;0.60;;;;;;;6.94;84.10;96205.31;29395;244;63004;-56
2023/03/25 02:27:04;;;;;;;0.50;0.50;;;;;;;6.88;84.59;96208.38;29395;228;63009;-56
2023/03/25 02:28:07;;;;;;;0.50;0.50;;;;;;;6.81;85.12;96203.31;29395;222;63008;-56
2023/03/25 02:29:00;;;;;;;0.50;0.50;;;;;;;6.78;86.42;96209.25;29395;220;63005;-56
2023/03/25 02:30:05;;;;;;;0.50;0.50;;;;;;;6.78;86.08;96208.47;29394;232;64014;-58
2023/03/25 02:31:24;;;;;;;0.50;0.50;;;;;;;6.82;85.91;96209.50;29395;304;63005;-56
2023/03/25 02:32:44;;;;;;;0.60;0.60;;;;;;;6.80;85.85;96207.09;29395;371;63014;-56
2023/03/25 02:34:13;;;;;;;0.50;0.50;;;;;;;6.76;86.21;96210.63;29395;205;63004;-56
2023/03/25 02:35:22;;;;;;;0.57;0.57;;;;;;;6.78;86.00;96208.47;29394;208;64029;-56
2023/03/25 02:36:47;;;;;;;0.50;0.50;;;;;;;6.80;86.09;96217.06;29395;245;63009;-56
2023/03/25 02:38:16;;;;;;;0.60;0.60;;;;;;;6.83;86.68;96213.81;29395;203;63005;-56
2023/03/25 02:39:18;;;;;;;0.50;0.50;;;;;;;6.92;85.67;96230.97;29395;229;63015;-55
2023/03/25 02:40:21;;;;;;;0.60;0.60;;;;;;;7.05;85.71;96236.47;29416;202;64009;-56
2023/03/25 02:41:49;;;;;;;0.50;0.50;;;;;;;7.25;83.38;96234.66;29394;218;64013;-58
2023/03/25 02:42:46;;;;;;;0.50;0.50;;;;;;;7.25;82.46;96221.97;29394;221;64009;-55
2023/03/25 02:43:31;;;;;;;0.50;0.50;;;;;;;7.27;82.62;96241.38;29395;238;63009;-56
2023/03/25 02:44:43;;;;;;;0.50;0.50;;;;;;;7.31;82.65;96238.88;29395;199;63005;-57
2023/03/25 02:45:27;;;;;;;0.50;0.50;;;;;;;7.46;81.99;96235.22;29394;314;64013;-55
2023/03/25 02:46:06;;;;;;;0.50;0.50;;;;;;;7.46;82.78;96246.00;29394;230;64009;-57
2023/03/25 02:46:48;;;;;;;0.50;0.50;;;;;;;7.32;83.83;96237.81;29395;326;63009;-56
2023/03/25 02:47:24;;;;;;;0.50;0.50;;;;;;;7.15;84.91;96243.66;29395;256;63005;-57
2023/03/25 02:48:11;;;;;;;0.50;0.50;;;;;;;7.08;85.30;96232.41;29395;229;63009;-55
2023/03/25 02:49:10;;;;;;;0.50;0.50;;;;;;;7.08;84.50;96251.28;29395;283;63004;-57
2023/03/25 02:50:17;;;;;;;0.50;0.50;;;;;;;7.15;83.20;96222.09;29395;215;63009;-55
2023/03/25 02:50:57;;;;;;;0.50;0.50;;;;;;;7.24;80.99;96249.25;29394;274;64009;-56
2023/03/25 02:51:33;;;;;;;0.50;0.50;;;;;;;7.31;80.48;96250.50;29395;197;63009;-55
2023/03/25 02:52:37;;;;;;;0.50;0.50;;;;;;;7.29;80.78;96246.47;29394;198;64005;-55
2023/03/25 02:53:17;;;;;;;0.50;0.50;;;;;;;7.37;80.65;96248.53;29395;214;63009;-59
2023/03/25 02:53:50;;;;;;;0.50;0.50;;;;;;;7.34;80.82;96249.91;29417;252;63005;-60
2023/03/25 02:54:27;;;;;;;0.50;0.50;;;;;;;7.30;81.20;96258.87;29395;197;63009;-58
2023/03/25 02:55:03;;;;;;;0.50;0.50;;;;;;;7.23;81.49;96258.44;29395;298;63005;-57
2023/03/25 02:55:36;;;;;;;0.50;0.50;;;;;;;7.14;82.26;96250.16;29395;248;63009;-57
2023/03/25 02:56:14;;;;;;;0.50;0.50;;;;;;;7.05;83.39;96259.97;29394;202;64009;-57
2023/03/25 02:56:49;;;;;;;0.50;0.50;;;;;;;6.96;84.18;96245.47;29395;202;63009;-56
2023/03/25 02:57:21;;;;;;;0.50;0.50;;;;;;;7.06;83.72;96242.69;29395;251;63004;-56
2023/03/25 02:57:56;;;;;;;0.50;0.50;;;;;;;7.10;83.51;96245.63;29395;208;63026;-57
2023/03/25 02:58:29;;;;;;;0.50;0.50;;;;;;;7.12;83.60;96240.75;29394;297;64009;-57
2023/03/25 02:59:03;;;;;;;0.50;0.50;;;;;;;7.10;83.77;96232.94;29395;287;63009;-56
2023/03/25 02:59:37;;;;;;;0.50;0.50;;;;;;;7.01;84.18;96234.63;29395;244;63005;-56
2023/03/25 03:00:14;;;;;;;0.50;0.50;;;;;;;6.97;84.48;96236.28;29395;221;63009;-57
2023/03/25 03:00:48;;;;;;;0.50;0.50;;;;;;;6.89;84.77;96218.88;29395;218;63009;-63
2023/03/25 03:01:21;;;;;;;0.50;0.50;;;;;;;6.84;85.34;96218.13;29395;220;63009;-58
2023/03/25 03:01:57;;;;;;;0.50;0.50;;;;;;;6.92;85.00;96204.00;29395;206;63005;-57